sensor_id;sensor_type;location;lat;lon;timestamp;pressure;altitude;pressure_sealevel;temperature;humidity
80511;BME280;69840;53.040;8.600;2023-06-10T00:03:11;101878.66;;;16.02;66.85
80511;BME280;69840;53.040;8.600;2023-06-10T00:07:23;101877.69;;;15.95;66.84
80511;BME280;69840;53.040;8.600;2023-06-10T00:11:37;101874.88;;;15.88;67.62
80511;BME280;69840;53.040;8.600;2023-06-10T00:15:49;101868.41;;;15.83;68.43
80511;BME280;69840;53.040;8.600;2023-06-10T00:20:02;101875.22;;;15.77;68.09
80511;BME280;69840;53.040;8.600;2023-06-10T00:24:15;101863.78;;;15.68;68.60
80511;BME280;69840;53.040;8.600;2023-06-10T00:28:27;101875.28;;;15.61;68.57
80511;BME280;69840;53.040;8.600;2023-06-10T00:32:40;101875.44;;;15.51;70.05
80511;BME280;69840;53.040;8.600;2023-06-10T00:36:53;101866.09;;;15.47;69.79
80511;BME280;69840;53.040;8.600;2023-06-10T00:41:05;101878.28;;;15.41;70.44
80511;BME280;69840;53.040;8.600;2023-06-10T00:45:18;101876.13;;;15.37;70.71
80511;BME280;69840;53.040;8.600;2023-06-10T00:49:31;101879.78;;;15.28;71.79
80511;BME280;69840;53.040;8.600;2023-06-10T00:53:44;101884.97;;;15.21;72.23
80511;BME280;69840;53.040;8.600;2023-06-10T00:57:57;101891.09;;;15.14;72.31
80511;BME280;69840;53.040;8.600;2023-06-10T01:02:10;101888.28;;;15.07;73.04
80511;BME280;69840;53.040;8.600;2023-06-10T01:11:00;101895.44;;;14.90;74.05
80511;BME280;69840;53.040;8.600;2023-06-10T01:15:13;101894.41;;;14.83;74.35
80511;BME280;69840;53.040;8.600;2023-06-10T01:19:26;101895.25;;;14.76;75.13
80511;BME280;69840;53.040;8.600;2023-06-10T01:23:38;101900.88;;;14.72;74.99
80511;BME280;69840;53.040;8.600;2023-06-10T01:27:51;101895.22;;;14.67;76.19
80511;BME280;69840;53.040;8.600;2023-06-10T01:32:14;101908.50;;;14.59;76.61
80511;BME280;69840;53.040;8.600;2023-06-10T01:36:28;101903.81;;;14.53;77.00
80511;BME280;69840;53.040;8.600;2023-06-10T01:40:41;101909.28;;;14.44;78.07
80511;BME280;69840;53.040;8.600;2023-06-10T01:44:54;101914.38;;;14.37;78.47
80511;BME280;69840;53.040;8.600;2023-06-10T01:49:07;101918.34;;;14.33;78.99
80511;BME280;69840;53.040;8.600;2023-06-10T01:53:20;101917.03;;;14.29;79.19
80511;BME280;69840;53.040;8.600;2023-06-10T01:57:33;101915.97;;;14.22;79.47
80511;BME280;69840;53.040;8.600;2023-06-10T02:01:45;101918.28;;;14.17;80.04
80511;BME280;69840;53.040;8.600;2023-06-10T02:05:58;101922.41;;;14.11;80.00
80511;BME280;69840;53.040;8.600;2023-06-10T02:10:10;101923.19;;;14.03;80.89
80511;BME280;69840;53.040;8.600;2023-06-10T02:14:23;101925.53;;;13.98;80.74
80511;BME280;69840;53.040;8.600;2023-06-10T02:18:36;101932.13;;;13.94;81.10
80511;BME280;69840;53.040;8.600;2023-06-10T02:22:48;101928.13;;;13.90;81.41
80511;BME280;69840;53.040;8.600;2023-06-10T02:27:01;101934.38;;;13.81;81.74
80511;BME280;69840;53.040;8.600;2023-06-10T02:31:13;101944.47;;;13.78;81.93
80511;BME280;69840;53.040;8.600;2023-06-10T02:35:26;101938.63;;;13.74;82.27
80511;BME280;69840;53.040;8.600;2023-06-10T02:39:40;101940.28;;;13.67;82.30
80511;BME280;69840;53.040;8.600;2023-06-10T02:43:55;101941.56;;;13.63;82.26
80511;BME280;69840;53.040;8.600;2023-06-10T02:48:09;101946.50;;;13.58;82.57
80511;BME280;69840;53.040;8.600;2023-06-10T02:52:21;101943.16;;;13.56;82.84
80511;BME280;69840;53.040;8.600;2023-06-10T02:56:34;101954.56;;;13.48;83.66
80511;BME280;69840;53.040;8.600;2023-06-10T03:00:49;101949.84;;;13.42;83.86
80511;BME280;69840;53.040;8.600;2023-06-10T03:05:01;101942.66;;;13.34;84.25
80511;BME280;69840;53.040;8.600;2023-06-10T03:09:14;101949.94;;;13.32;84.27
80511;BME280;69840;53.040;8.600;2023-06-10T03:13:29;101956.09;;;13.33;84.30
80511;BME280;69840;53.040;8.600;2023-06-10T03:17:42;101949.28;;;13.30;84.51
80511;BME280;69840;53.040;8.600;2023-06-10T03:22:13;101955.56;;;13.29;85.06
80511;BME280;69840;53.040;8.600;2023-06-10T03:26:36;101954.97;;;13.36;85.14
80511;BME280;69840;53.040;8.600;2023-06-10T03:30:51;101950.69;;;13.43;84.34
80511;BME280;69840;53.040;8.600;2023-06-10T03:35:07;101952.09;;;13.55;84.11
80511;BME280;69840;53.040;8.600;2023-06-10T03:39:21;101951.34;;;13.62;83.66
80511;BME280;69840;53.040;8.600;2023-06-10T03:43:33;101960.69;;;13.66;83.25
80511;BME280;69840;53.040;8.600;2023-06-10T03:47:46;101970.31;;;13.67;83.10
80511;BME280;69840;53.040;8.600;2023-06-10T03:52:02;101956.09;;;13.77;82.70
80511;BME280;69840;53.040;8.600;2023-06-10T03:56:15;101961.50;;;13.85;81.89
80511;BME280;69840;53.040;8.600;2023-06-10T04:00:27;101965.69;;;13.95;82.67
80511;BME280;69840;53.040;8.600;2023-06-10T04:04:40;101971.19;;;14.02;81.65
80511;BME280;69840;53.040;8.600;2023-06-10T04:08:52;101971.94;;;14.12;81.50
80511;BME280;69840;53.040;8.600;2023-06-10T04:13:05;101975.28;;;14.14;81.46
80511;BME280;69840;53.040;8.600;2023-06-10T04:17:23;101969.81;;;14.16;81.14
80511;BME280;69840;53.040;8.600;2023-06-10T04:21:36;101975.00;;;14.25;80.63
80511;BME280;69840;53.040;8.600;2023-06-10T04:25:48;101968.03;;;14.32;79.75
80511;BME280;69840;53.040;8.600;2023-06-10T04:30:03;101969.25;;;14.38;79.51
80511;BME280;69840;53.040;8.600;2023-06-10T04:34:18;101970.63;;;14.42;78.22
80511;BME280;69840;53.040;8.600;2023-06-10T04:38:30;101967.97;;;14.42;78.23
80511;BME280;69840;53.040;8.600;2023-06-10T04:42:45;101973.97;;;14.44;78.19
80511;BME280;69840;53.040;8.600;2023-06-10T04:46:58;101978.31;;;14.53;78.27
80511;BME280;69840;53.040;8.600;2023-06-10T04:51:10;101968.03;;;14.58;78.45
80511;BME280;69840;53.040;8.600;2023-06-10T04:55:23;101973.72;;;14.63;76.65
80511;BME280;69840;53.040;8.600;2023-06-10T04:59:35;101966.72;;;14.62;76.16
80511;BME280;69840;53.040;8.600;2023-06-10T05:03:48;101964.91;;;14.63;76.07
80511;BME280;69840;53.040;8.600;2023-06-10T05:08:00;101969.09;;;14.73;76.48
80511;BME280;69840;53.040;8.600;2023-06-10T05:12:13;101975.59;;;14.87;75.62
80511;BME280;69840;53.040;8.600;2023-06-10T05:16:26;101977.78;;;14.92;74.81
80511;BME280;69840;53.040;8.600;2023-06-10T05:20:38;101978.13;;;14.97;74.41
80511;BME280;69840;53.040;8.600;2023-06-10T05:24:51;101978.63;;;15.00;74.04
80511;BME280;69840;53.040;8.600;2023-06-10T05:29:04;101984.63;;;14.94;73.99
80511;BME280;69840;53.040;8.600;2023-06-10T05:33:17;101982.97;;;14.93;73.96
80511;BME280;69840;53.040;8.600;2023-06-10T05:37:29;101991.78;;;14.94;73.85
80511;BME280;69840;53.040;8.600;2023-06-10T05:41:42;101987.63;;;14.99;74.32
80511;BME280;69840;53.040;8.600;2023-06-10T05:45:54;101994.47;;;15.10;73.14
80511;BME280;69840;53.040;8.600;2023-06-10T05:50:07;101982.00;;;15.11;74.26
80511;BME280;69840;53.040;8.600;2023-06-10T05:54:20;101986.50;;;15.34;72.75
80511;BME280;69840;53.040;8.600;2023-06-10T05:58:33;101982.84;;;15.52;71.62
80511;BME280;69840;53.040;8.600;2023-06-10T06:02:45;101976.72;;;15.67;71.55
80511;BME280;69840;53.040;8.600;2023-06-10T06:06:58;101990.84;;;15.92;70.69
80511;BME280;69840;53.040;8.600;2023-06-10T06:11:10;101996.50;;;15.97;69.92
80511;BME280;69840;53.040;8.600;2023-06-10T06:15:23;102001.00;;;16.05;69.86
80511;BME280;69840;53.040;8.600;2023-06-10T06:19:35;101992.59;;;16.24;68.79
80511;BME280;69840;53.040;8.600;2023-06-10T06:23:48;101995.44;;;16.31;69.67
80511;BME280;69840;53.040;8.600;2023-06-10T06:28:00;102008.69;;;16.55;67.39
80511;BME280;69840;53.040;8.600;2023-06-10T06:32:13;102010.38;;;16.64;68.05
80511;BME280;69840;53.040;8.600;2023-06-10T06:36:26;102013.72;;;17.20;65.64
80511;BME280;69840;53.040;8.600;2023-06-10T06:40:38;102018.78;;;17.15;64.98
80511;BME280;69840;53.040;8.600;2023-06-10T06:44:51;102019.09;;;16.89;66.00
80511;BME280;69840;53.040;8.600;2023-06-10T06:49:03;102006.13;;;17.09;65.30
80511;BME280;69840;53.040;8.600;2023-06-10T06:53:16;101996.69;;;17.21;65.56
80511;BME280;69840;53.040;8.600;2023-06-10T06:57:28;101992.94;;;17.07;66.64
80511;BME280;69840;53.040;8.600;2023-06-10T07:01:40;101988.63;;;17.29;64.93
80511;BME280;69840;53.040;8.600;2023-06-10T07:05:53;101989.28;;;17.31;66.24
80511;BME280;69840;53.040;8.600;2023-06-10T07:10:06;101995.31;;;17.48;64.27
80511;BME280;69840;53.040;8.600;2023-06-10T07:14:18;101999.47;;;17.05;64.99
80511;BME280;69840;53.040;8.600;2023-06-10T07:18:31;102001.19;;;17.21;65.10
80511;BME280;69840;53.040;8.600;2023-06-10T07:22:43;102003.22;;;17.41;66.54
80511;BME280;69840;53.040;8.600;2023-06-10T07:26:56;101999.75;;;17.33;65.33
80511;BME280;69840;53.040;8.600;2023-06-10T07:31:08;102001.63;;;17.55;63.82
80511;BME280;69840;53.040;8.600;2023-06-10T07:35:21;102002.63;;;17.77;63.73
80511;BME280;69840;53.040;8.600;2023-06-10T07:39:34;102002.69;;;17.69;65.27
80511;BME280;69840;53.040;8.600;2023-06-10T07:43:46;102005.50;;;17.75;63.63
80511;BME280;69840;53.040;8.600;2023-06-10T07:47:59;102000.34;;;17.88;65.55
80511;BME280;69840;53.040;8.600;2023-06-10T07:52:11;101991.41;;;18.11;62.58
80511;BME280;69840;53.040;8.600;2023-06-10T07:56:24;101996.31;;;18.07;63.50
80511;BME280;69840;53.040;8.600;2023-06-10T08:00:36;101989.22;;;18.14;63.31
80511;BME280;69840;53.040;8.600;2023-06-10T08:04:49;101987.34;;;18.00;64.46
80511;BME280;69840;53.040;8.600;2023-06-10T08:09:01;101988.00;;;18.32;63.03
80511;BME280;69840;53.040;8.600;2023-06-10T08:13:14;101986.34;;;18.45;62.13
80511;BME280;69840;53.040;8.600;2023-06-10T08:17:26;101988.56;;;18.71;61.65
80511;BME280;69840;53.040;8.600;2023-06-10T08:21:39;101988.00;;;18.46;61.79
80511;BME280;69840;53.040;8.600;2023-06-10T08:25:51;101979.75;;;18.77;61.37
80511;BME280;69840;53.040;8.600;2023-06-10T08:30:05;101975.78;;;18.88;60.86
80511;BME280;69840;53.040;8.600;2023-06-10T08:34:17;101978.06;;;18.91;60.17
80511;BME280;69840;53.040;8.600;2023-06-10T08:38:30;101972.75;;;18.76;61.70
80511;BME280;69840;53.040;8.600;2023-06-10T08:43:03;101973.75;;;19.11;59.30
80511;BME280;69840;53.040;8.600;2023-06-10T08:47:18;101964.50;;;19.14;59.44
80511;BME280;69840;53.040;8.600;2023-06-10T08:51:32;101966.78;;;19.38;57.97
80511;BME280;69840;53.040;8.600;2023-06-10T08:55:50;101966.66;;;19.46;59.61
80511;BME280;69840;53.040;8.600;2023-06-10T09:00:04;101966.06;;;19.72;59.56
80511;BME280;69840;53.040;8.600;2023-06-10T09:04:18;101967.09;;;19.71;58.94
80511;BME280;69840;53.040;8.600;2023-06-10T09:08:31;101954.13;;;19.75;57.50
80511;BME280;69840;53.040;8.600;2023-06-10T09:12:45;101955.50;;;19.92;57.05
80511;BME280;69840;53.040;8.600;2023-06-10T09:16:57;101957.28;;;20.13;56.47
80511;BME280;69840;53.040;8.600;2023-06-10T09:21:10;101961.66;;;20.20;56.44
80511;BME280;69840;53.040;8.600;2023-06-10T09:25:37;101955.00;;;20.16;55.66
80511;BME280;69840;53.040;8.600;2023-06-10T09:34:13;101968.81;;;20.41;56.34
80511;BME280;69840;53.040;8.600;2023-06-10T09:38:29;101968.91;;;20.61;55.41
80511;BME280;69840;53.040;8.600;2023-06-10T09:42:42;101955.75;;;20.86;53.53
80511;BME280;69840;53.040;8.600;2023-06-10T09:46:56;101961.56;;;20.96;52.00
80511;BME280;69840;53.040;8.600;2023-06-10T09:51:10;101962.44;;;21.16;52.85
80511;BME280;69840;53.040;8.600;2023-06-10T09:55:23;101955.00;;;21.18;51.17
80511;BME280;69840;53.040;8.600;2023-06-10T09:59:37;101951.69;;;21.76;52.11
80511;BME280;69840;53.040;8.600;2023-06-10T10:03:51;101945.56;;;22.39;49.03
80511;BME280;69840;53.040;8.600;2023-06-10T10:08:03;101940.91;;;22.15;50.79
80511;BME280;69840;53.040;8.600;2023-06-10T10:12:16;101947.38;;;22.52;48.70
80511;BME280;69840;53.040;8.600;2023-06-10T10:16:35;101949.50;;;22.88;48.08
80511;BME280;69840;53.040;8.600;2023-06-10T10:20:50;101954.09;;;23.44;47.31
80511;BME280;69840;53.040;8.600;2023-06-10T10:25:08;101951.19;;;23.14;48.02
80511;BME280;69840;53.040;8.600;2023-06-10T10:29:30;101940.53;;;23.57;45.00
80511;BME280;69840;53.040;8.600;2023-06-10T10:33:55;101940.91;;;23.61;43.01
80511;BME280;69840;53.040;8.600;2023-06-10T10:38:10;101938.56;;;23.64;44.14
80511;BME280;69840;53.040;8.600;2023-06-10T10:42:23;101939.03;;;23.79;42.67
80511;BME280;69840;53.040;8.600;2023-06-10T10:46:44;101933.81;;;23.85;42.54
80511;BME280;69840;53.040;8.600;2023-06-10T10:50:57;101937.25;;;24.10;40.76
80511;BME280;69840;53.040;8.600;2023-06-10T10:55:12;101947.53;;;25.81;37.74
80511;BME280;69840;53.040;8.600;2023-06-10T10:59:25;101940.41;;;24.92;40.44
80511;BME280;69840;53.040;8.600;2023-06-10T11:03:45;101940.59;;;25.08;40.92
80511;BME280;69840;53.040;8.600;2023-06-10T11:07:58;101937.06;;;25.08;39.68
80511;BME280;69840;53.040;8.600;2023-06-10T11:12:10;101927.81;;;25.27;35.66
80511;BME280;69840;53.040;8.600;2023-06-10T11:16:25;101921.84;;;25.83;35.51
80511;BME280;69840;53.040;8.600;2023-06-10T11:25:03;101913.69;;;28.58;29.37
80511;BME280;69840;53.040;8.600;2023-06-10T11:29:15;101902.31;;;30.09;28.47
80511;BME280;69840;53.040;8.600;2023-06-10T11:33:28;101910.41;;;29.42;28.23
80511;BME280;69840;53.040;8.600;2023-06-10T11:37:41;101897.34;;;31.04;25.75
80511;BME280;69840;53.040;8.600;2023-06-10T11:41:54;101896.97;;;32.46;22.80
80511;BME280;69840;53.040;8.600;2023-06-10T11:46:07;101891.44;;;33.24;21.87
80511;BME280;69840;53.040;8.600;2023-06-10T11:50:36;101896.78;;;33.92;23.04
80511;BME280;69840;53.040;8.600;2023-06-10T11:54:55;101892.84;;;35.11;19.60
80511;BME280;69840;53.040;8.600;2023-06-10T11:59:08;101882.31;;;35.32;19.61
80511;BME280;69840;53.040;8.600;2023-06-10T12:03:21;101880.69;;;34.28;22.92
80511;BME280;69840;53.040;8.600;2023-06-10T12:07:34;101871.94;;;34.96;18.93
80511;BME280;69840;53.040;8.600;2023-06-10T12:12:05;101875.19;;;35.58;18.59
80511;BME280;69840;53.040;8.600;2023-06-10T12:16:18;101866.50;;;36.33;16.45
80511;BME280;69840;53.040;8.600;2023-06-10T12:20:32;101860.66;;;36.57;18.26
80511;BME280;69840;53.040;8.600;2023-06-10T12:24:57;101856.38;;;34.92;18.71
80511;BME280;69840;53.040;8.600;2023-06-10T12:29:18;101855.34;;;36.02;16.84
80511;BME280;69840;53.040;8.600;2023-06-10T12:33:31;101843.16;;;35.07;17.30
80511;BME280;69840;53.040;8.600;2023-06-10T12:42:08;101847.88;;;36.03;16.09
80511;BME280;69840;53.040;8.600;2023-06-10T12:46:21;101839.13;;;35.60;15.59
80511;BME280;69840;53.040;8.600;2023-06-10T12:50:39;101837.78;;;35.16;19.68
80511;BME280;69840;53.040;8.600;2023-06-10T12:54:55;101837.69;;;35.21;20.81
80511;BME280;69840;53.040;8.600;2023-06-10T12:59:09;101831.19;;;34.85;17.89
80511;BME280;69840;53.040;8.600;2023-06-10T13:03:22;101828.44;;;35.31;19.59
80511;BME280;69840;53.040;8.600;2023-06-10T13:07:35;101833.03;;;35.63;18.98
80511;BME280;69840;53.040;8.600;2023-06-10T13:11:48;101824.28;;;35.47;18.97
80511;BME280;69840;53.040;8.600;2023-06-10T13:16:02;101828.03;;;35.78;16.80
80511;BME280;69840;53.040;8.600;2023-06-10T13:20:15;101822.53;;;35.65;16.64
80511;BME280;69840;53.040;8.600;2023-06-10T13:24:29;101815.50;;;35.31;17.52
80511;BME280;69840;53.040;8.600;2023-06-10T13:28:45;101812.13;;;36.25;16.71
80511;BME280;69840;53.040;8.600;2023-06-10T13:32:58;101802.53;;;36.00;20.67
80511;BME280;69840;53.040;8.600;2023-06-10T13:37:11;101802.44;;;35.92;18.99
80511;BME280;69840;53.040;8.600;2023-06-10T13:41:24;101791.94;;;36.52;19.11
80511;BME280;69840;53.040;8.600;2023-06-10T13:45:37;101792.66;;;36.66;18.69
80511;BME280;69840;53.040;8.600;2023-06-10T13:49:51;101788.53;;;37.56;16.01
80511;BME280;69840;53.040;8.600;2023-06-10T13:54:04;101782.75;;;38.01;15.66
80511;BME280;69840;53.040;8.600;2023-06-10T13:58:17;101781.97;;;37.35;20.24
80511;BME280;69840;53.040;8.600;2023-06-10T14:02:30;101782.47;;;36.67;18.11
80511;BME280;69840;53.040;8.600;2023-06-10T14:06:44;101775.94;;;36.63;17.99
80511;BME280;69840;53.040;8.600;2023-06-10T14:10:57;101780.56;;;37.07;18.56
80511;BME280;69840;53.040;8.600;2023-06-10T14:15:10;101772.22;;;37.20;18.18
80511;BME280;69840;53.040;8.600;2023-06-10T14:19:23;101774.56;;;37.53;16.12
80511;BME280;69840;53.040;8.600;2023-06-10T14:23:36;101772.09;;;36.95;17.92
80511;BME280;69840;53.040;8.600;2023-06-10T14:27:50;101772.72;;;36.92;18.00
80511;BME280;69840;53.040;8.600;2023-06-10T14:32:03;101765.50;;;37.13;17.93
80511;BME280;69840;53.040;8.600;2023-06-10T14:36:21;101762.53;;;37.49;17.36
80511;BME280;69840;53.040;8.600;2023-06-10T14:40:34;101773.75;;;37.44;17.17
80511;BME280;69840;53.040;8.600;2023-06-10T14:44:48;101764.34;;;37.53;15.81
80511;BME280;69840;53.040;8.600;2023-06-10T14:49:01;101755.19;;;37.27;17.72
80511;BME280;69840;53.040;8.600;2023-06-10T14:53:14;101757.16;;;37.27;17.88
80511;BME280;69840;53.040;8.600;2023-06-10T14:57:27;101746.38;;;37.82;17.54
80511;BME280;69840;53.040;8.600;2023-06-10T15:01:40;101750.72;;;36.02;20.30
80511;BME280;69840;53.040;8.600;2023-06-10T15:05:54;101753.00;;;36.45;19.38
80511;BME280;69840;53.040;8.600;2023-06-10T15:10:07;101734.72;;;36.27;20.46
80511;BME280;69840;53.040;8.600;2023-06-10T15:14:20;101738.81;;;35.93;21.90
80511;BME280;69840;53.040;8.600;2023-06-10T15:18:34;101735.19;;;35.84;20.32
80511;BME280;69840;53.040;8.600;2023-06-10T15:22:47;101734.53;;;36.45;18.41
80511;BME280;69840;53.040;8.600;2023-06-10T15:27:01;101738.69;;;36.65;18.13
80511;BME280;69840;53.040;8.600;2023-06-10T15:31:14;101729.50;;;36.03;21.30
80511;BME280;69840;53.040;8.600;2023-06-10T15:35:27;101726.28;;;35.37;21.37
80511;BME280;69840;53.040;8.600;2023-06-10T15:39:40;101725.63;;;36.26;20.99
80511;BME280;69840;53.040;8.600;2023-06-10T15:43:53;101718.81;;;36.24;19.89
80511;BME280;69840;53.040;8.600;2023-06-10T15:48:06;101714.50;;;35.73;21.03
80511;BME280;69840;53.040;8.600;2023-06-10T15:52:19;101722.25;;;35.84;21.47
80511;BME280;69840;53.040;8.600;2023-06-10T15:56:32;101715.78;;;36.11;20.86
80511;BME280;69840;53.040;8.600;2023-06-10T16:00:45;101715.91;;;36.06;20.47
80511;BME280;69840;53.040;8.600;2023-06-10T16:04:58;101703.91;;;35.80;21.95
80511;BME280;69840;53.040;8.600;2023-06-10T16:09:12;101704.41;;;35.82;21.23
80511;BME280;69840;53.040;8.600;2023-06-10T16:13:25;101694.81;;;35.16;22.33
80511;BME280;69840;53.040;8.600;2023-06-10T16:17:38;101686.03;;;34.27;24.17
80511;BME280;69840;53.040;8.600;2023-06-10T16:21:51;101691.00;;;34.57;21.79
80511;BME280;69840;53.040;8.600;2023-06-10T16:26:05;101680.16;;;34.01;23.62
80511;BME280;69840;53.040;8.600;2023-06-10T16:30:18;101682.06;;;34.00;22.58
80511;BME280;69840;53.040;8.600;2023-06-10T16:34:31;101679.94;;;33.60;22.15
80511;BME280;69840;53.040;8.600;2023-06-10T16:38:43;101677.09;;;33.27;25.59
80511;BME280;69840;53.040;8.600;2023-06-10T16:42:56;101678.69;;;33.33;24.36
80511;BME280;69840;53.040;8.600;2023-06-10T16:47:09;101675.88;;;33.15;26.18
80511;BME280;69840;53.040;8.600;2023-06-10T16:51:22;101678.50;;;33.01;24.05
80511;BME280;69840;53.040;8.600;2023-06-10T16:55:35;101669.59;;;32.61;26.46
80511;BME280;69840;53.040;8.600;2023-06-10T16:59:47;101676.97;;;32.37;28.61
80511;BME280;69840;53.040;8.600;2023-06-10T17:04:00;101670.47;;;32.28;25.71
80511;BME280;69840;53.040;8.600;2023-06-10T17:08:13;101674.84;;;31.95;28.26
80511;BME280;69840;53.040;8.600;2023-06-10T17:12:26;101674.34;;;31.88;28.16
80511;BME280;69840;53.040;8.600;2023-06-10T17:16:39;101666.63;;;31.51;28.76
80511;BME280;69840;53.040;8.600;2023-06-10T17:20:51;101669.97;;;31.43;29.22
80511;BME280;69840;53.040;8.600;2023-06-10T17:25:04;101677.91;;;31.39;30.88
80511;BME280;69840;53.040;8.600;2023-06-10T17:29:17;101671.78;;;30.88;29.54
80511;BME280;69840;53.040;8.600;2023-06-10T17:33:30;101676.66;;;31.01;30.72
80511;BME280;69840;53.040;8.600;2023-06-10T17:37:43;101683.78;;;30.97;30.83
80511;BME280;69840;53.040;8.600;2023-06-10T17:41:56;101680.28;;;30.71;34.40
80511;BME280;69840;53.040;8.600;2023-06-10T17:46:09;101674.03;;;30.40;31.46
80511;BME280;69840;53.040;8.600;2023-06-10T17:50:22;101681.69;;;30.38;31.78
80511;BME280;69840;53.040;8.600;2023-06-10T17:54:35;101673.50;;;30.08;32.24
80511;BME280;69840;53.040;8.600;2023-06-10T17:58:48;101692.28;;;29.84;32.44
80511;BME280;69840;53.040;8.600;2023-06-10T18:03:00;101687.59;;;29.54;33.61
80511;BME280;69840;53.040;8.600;2023-06-10T18:07:13;101685.81;;;29.22;33.59
80511;BME280;69840;53.040;8.600;2023-06-10T18:11:26;101689.50;;;28.96;35.43
80511;BME280;69840;53.040;8.600;2023-06-10T18:15:38;101691.94;;;28.55;35.94
80511;BME280;69840;53.040;8.600;2023-06-10T18:19:51;101703.47;;;28.36;35.49
80511;BME280;69840;53.040;8.600;2023-06-10T18:24:04;101700.00;;;28.13;38.18
80511;BME280;69840;53.040;8.600;2023-06-10T18:28:17;101698.63;;;27.84;37.22
80511;BME280;69840;53.040;8.600;2023-06-10T18:32:30;101697.19;;;28.30;48.75
80511;BME280;69840;53.040;8.600;2023-06-10T18:36:43;101695.69;;;24.94;80.31
80511;BME280;69840;53.040;8.600;2023-06-10T18:40:56;101704.81;;;24.05;83.33
80511;BME280;69840;53.040;8.600;2023-06-10T18:45:09;101713.47;;;24.25;76.55
80511;BME280;69840;53.040;8.600;2023-06-10T18:49:22;101716.91;;;24.32;64.97
80511;BME280;69840;53.040;8.600;2023-06-10T18:53:35;101710.81;;;24.37;60.48
80511;BME280;69840;53.040;8.600;2023-06-10T18:57:47;101719.25;;;24.40;68.05
80511;BME280;69840;53.040;8.600;2023-06-10T19:02:00;101724.44;;;24.12;58.81
80511;BME280;69840;53.040;8.600;2023-06-10T19:06:13;101735.25;;;24.12;63.42
80511;BME280;69840;53.040;8.600;2023-06-10T19:10:26;101730.91;;;24.11;64.31
80511;BME280;69840;53.040;8.600;2023-06-10T19:14:38;101737.84;;;24.07;61.01
80511;BME280;69840;53.040;8.600;2023-06-10T19:18:52;101744.63;;;24.09;59.72
80511;BME280;69840;53.040;8.600;2023-06-10T19:23:05;101748.97;;;24.10;58.06
80511;BME280;69840;53.040;8.600;2023-06-10T19:27:18;101759.56;;;24.12;56.17
80511;BME280;69840;53.040;8.600;2023-06-10T19:31:30;101764.13;;;24.11;60.50
80511;BME280;69840;53.040;8.600;2023-06-10T19:35:43;101767.66;;;24.12;57.61
80511;BME280;69840;53.040;8.600;2023-06-10T19:39:56;101774.72;;;24.13;56.24
80511;BME280;69840;53.040;8.600;2023-06-10T19:44:09;101787.47;;;24.24;57.13
80511;BME280;69840;53.040;8.600;2023-06-10T19:48:21;101797.97;;;24.32;56.19
80511;BME280;69840;53.040;8.600;2023-06-10T19:52:34;101803.00;;;24.29;55.28
80511;BME280;69840;53.040;8.600;2023-06-10T19:56:47;101815.75;;;24.22;54.30
80511;BME280;69840;53.040;8.600;2023-06-10T20:00:59;101809.94;;;24.06;51.76
80511;BME280;69840;53.040;8.600;2023-06-10T20:05:12;101817.97;;;23.95;48.62
80511;BME280;69840;53.040;8.600;2023-06-10T20:09:25;101820.38;;;23.66;50.94
80511;BME280;69840;53.040;8.600;2023-06-10T20:13:38;101826.31;;;23.32;52.14
80511;BME280;69840;53.040;8.600;2023-06-10T20:17:51;101823.28;;;23.03;50.93
80511;BME280;69840;53.040;8.600;2023-06-10T20:22:04;101830.53;;;22.71;55.64
80511;BME280;69840;53.040;8.600;2023-06-10T20:26:16;101833.09;;;22.28;54.99
80511;BME280;69840;53.040;8.600;2023-06-10T20:30:29;101843.06;;;22.21;56.06
80511;BME280;69840;53.040;8.600;2023-06-10T20:34:42;101844.56;;;22.11;57.24
80511;BME280;69840;53.040;8.600;2023-06-10T20:38:54;101848.94;;;21.98;56.30
80511;BME280;69840;53.040;8.600;2023-06-10T20:43:07;101847.75;;;21.88;58.01
80511;BME280;69840;53.040;8.600;2023-06-10T20:47:20;101840.31;;;21.77;57.16
80511;BME280;69840;53.040;8.600;2023-06-10T20:51:32;101848.84;;;21.60;61.18
80511;BME280;69840;53.040;8.600;2023-06-10T20:55:45;101842.66;;;21.47;65.40
80511;BME280;69840;53.040;8.600;2023-06-10T20:59:58;101844.56;;;21.20;59.64
80511;BME280;69840;53.040;8.600;2023-06-10T21:04:11;101857.97;;;21.07;60.98
80511;BME280;69840;53.040;8.600;2023-06-10T21:08:23;101854.66;;;20.91;64.69
80511;BME280;69840;53.040;8.600;2023-06-10T21:12:38;101859.19;;;20.71;67.28
80511;BME280;69840;53.040;8.600;2023-06-10T21:16:50;101898.44;;;20.59;62.73
80511;BME280;69840;53.040;8.600;2023-06-10T21:21:03;101906.06;;;20.62;61.02
80511;BME280;69840;53.040;8.600;2023-06-10T21:25:16;101912.69;;;20.59;59.96
80511;BME280;69840;53.040;8.600;2023-06-10T21:29:29;101918.66;;;20.55;60.02
80511;BME280;69840;53.040;8.600;2023-06-10T21:33:41;101909.97;;;20.53;59.36
80511;BME280;69840;53.040;8.600;2023-06-10T21:37:54;101908.91;;;20.47;60.70
80511;BME280;69840;53.040;8.600;2023-06-10T21:42:07;101912.63;;;20.40;60.04
80511;BME280;69840;53.040;8.600;2023-06-10T21:46:21;101914.00;;;20.36;62.70
80511;BME280;69840;53.040;8.600;2023-06-10T21:50:34;101916.00;;;20.20;61.18
80511;BME280;69840;53.040;8.600;2023-06-10T21:54:47;101912.47;;;20.13;63.84
80511;BME280;69840;53.040;8.600;2023-06-10T21:59:00;101906.00;;;20.01;64.05
80511;BME280;69840;53.040;8.600;2023-06-10T22:03:13;101904.88;;;19.89;64.79
80511;BME280;69840;53.040;8.600;2023-06-10T22:07:25;101906.47;;;19.77;62.75
80511;BME280;69840;53.040;8.600;2023-06-10T22:11:38;101908.91;;;19.72;64.01
80511;BME280;69840;53.040;8.600;2023-06-10T22:15:50;101900.22;;;19.70;63.97
80511;BME280;69840;53.040;8.600;2023-06-10T22:20:03;101906.53;;;19.55;63.10
80511;BME280;69840;53.040;8.600;2023-06-10T22:24:16;101900.13;;;19.56;66.98